createdAt,value
2018-02-27T00:00:03.281Z,98445.55
2018-02-27T00:01:06.616Z,98445.14
2018-02-27T00:02:10.189Z,98443.91
2018-02-27T00:03:13.712Z,98444.45
2018-02-27T00:04:17.188Z,98439.27
2018-02-27T00:05:21.012Z,98437.86
2018-02-27T00:06:24.560Z,98444.20
2018-02-27T00:07:27.911Z,98453.39
2018-02-27T00:08:31.430Z,98454.78
2018-02-27T00:09:34.969Z,98445.30
2018-02-27T00:10:38.394Z,98445.22
2018-02-27T00:11:42.436Z,98447.28
2018-02-27T00:12:45.857Z,98455.42
2018-02-27T00:13:49.328Z,98453.37
2018-02-27T00:14:52.807Z,98446.09
2018-02-27T00:15:56.167Z,98449.53
2018-02-27T00:16:59.688Z,98446.09
2018-02-27T00:18:04.331Z,98445.54
2018-02-27T00:19:07.863Z,98451.65
2018-02-27T00:20:11.368Z,98447.19
2018-02-27T00:21:14.832Z,98453.13
2018-02-27T00:22:18.357Z,98450.94
2018-02-27T00:23:21.923Z,98455.09
2018-02-27T00:24:25.762Z,98453.68
2018-02-27T00:25:29.035Z,98453.37
2018-02-27T00:26:32.398Z,98449.38
2018-02-27T00:27:35.871Z,98450.77
2018-02-27T00:28:39.485Z,98453.04
2018-02-27T00:29:42.925Z,98447.48
2018-02-27T00:30:46.860Z,98454.84
2018-02-27T00:31:50.444Z,98460.08
2018-02-27T00:32:54.064Z,98467.53
2018-02-27T00:33:57.363Z,98454.12
2018-02-27T00:35:00.795Z,98460.16
2018-02-27T00:36:04.239Z,98453.41
2018-02-27T00:37:08.309Z,98458.88
2018-02-27T00:38:11.757Z,98458.47
2018-02-27T00:39:15.237Z,98461.59
2018-02-27T00:40:18.735Z,98465.30
2018-02-27T00:41:22.272Z,98463.16
2018-02-27T00:42:25.769Z,98469.10
2018-02-27T00:43:29.553Z,98462.53
2018-02-27T00:44:33.036Z,98468.59
2018-02-27T00:45:36.509Z,98468.01
2018-02-27T00:46:40.135Z,98460.63
2018-02-27T00:47:43.878Z,98466.83
2018-02-27T00:48:47.387Z,98477.39
2018-02-27T00:49:51.253Z,98471.50
2018-02-27T00:50:55.066Z,98476.10
2018-02-27T00:51:58.629Z,98475.71
2018-02-27T00:53:02.256Z,98466.25
2018-02-27T00:54:05.778Z,98475.11
2018-02-27T00:55:09.275Z,98470.81
2018-02-27T00:56:13.236Z,98478.64
2018-02-27T00:57:16.874Z,98486.45
2018-02-27T00:58:20.547Z,98486.45
2018-02-27T00:59:24.954Z,98488.93
2018-02-27T01:00:28.687Z,98488.45
2018-02-27T01:01:32.325Z,98480.34
2018-02-27T01:02:36.185Z,98473.05
2018-02-27T01:03:39.864Z,98483.27
2018-02-27T01:04:43.260Z,98484.97
2018-02-27T01:05:46.597Z,98483.00
2018-02-27T01:06:50.135Z,98477.98
2018-02-27T01:07:53.409Z,98480.86
2018-02-27T01:08:57.016Z,98487.14
2018-02-27T01:10:00.556Z,98490.83
2018-02-27T01:11:04.039Z,98485.52
2018-02-27T01:12:07.536Z,98484.97
2018-02-27T01:13:11.122Z,98483.18
2018-02-27T01:14:15.386Z,98486.45
2018-02-27T01:15:19.034Z,98482.06
2018-02-27T01:16:22.487Z,98480.55
2018-02-27T01:17:25.848Z,98487.47
2018-02-27T01:18:29.420Z,98484.36
2018-02-27T01:19:33.027Z,98484.72
2018-02-27T01:20:36.996Z,98485.36
2018-02-27T01:21:40.850Z,98478.67
2018-02-27T01:22:44.369Z,98473.92
2018-02-27T01:23:47.857Z,98472.09
2018-02-27T01:24:51.616Z,98479.11
2018-02-27T01:25:55.194Z,98476.54
2018-02-27T01:26:59.315Z,98467.97
2018-02-27T01:28:02.880Z,98466.47
2018-02-27T01:29:06.494Z,98468.73
2018-02-27T01:30:10.170Z,98462.27
2018-02-27T01:31:13.459Z,98465.19
2018-02-27T01:32:17.069Z,98462.33
2018-02-27T01:33:20.953Z,98466.67
2018-02-27T01:34:24.422Z,98472.44
2018-02-27T01:35:28.206Z,98469.02
2018-02-27T01:36:31.766Z,98458.98
2018-02-27T01:37:35.492Z,98467.34
2018-02-27T01:38:39.119Z,98469.48
2018-02-27T01:39:43.162Z,98470.67
2018-02-27T01:40:46.661Z,98466.19
2018-02-27T01:41:50.099Z,98472.38
2018-02-27T01:42:53.797Z,98467.56
2018-02-27T01:43:57.497Z,98472.33
2018-02-27T01:45:01.034Z,98471.95
2018-02-27T01:46:05.183Z,98472.69
2018-02-27T01:47:08.721Z,98469.55
2018-02-27T01:48:12.459Z,98467.32
2018-02-27T01:49:16.120Z,98467.47
2018-02-27T01:50:19.822Z,98463.38
2018-02-27T01:51:23.300Z,98468.11
2018-02-27T01:52:27.209Z,98462.01
2018-02-27T01:53:30.482Z,98462.50
2018-02-27T01:54:34.223Z,98460.63
2018-02-27T01:55:37.734Z,98462.34
2018-02-27T01:56:41.000Z,98463.23
2018-02-27T01:57:44.162Z,98459.94
2018-02-27T01:58:48.232Z,98463.03
2018-02-27T01:59:51.673Z,98459.34
2018-02-27T02:00:55.339Z,98459.29
2018-02-27T02:01:58.878Z,98461.77
2018-02-27T02:03:02.845Z,98460.87
2018-02-27T02:04:06.316Z,98457.61
2018-02-27T02:05:10.329Z,98455.27
2018-02-27T02:06:14.987Z,98454.11
2018-02-27T02:07:18.572Z,98447.88
2018-02-27T02:08:22.321Z,98449.98
2018-02-27T02:09:26.020Z,98453.44
2018-02-27T02:10:29.795Z,98450.59
2018-02-27T02:11:33.813Z,98452.34
2018-02-27T02:12:37.505Z,98446.31
2018-02-27T02:13:41.197Z,98447.03
2018-02-27T02:14:44.850Z,98444.33
2018-02-27T02:15:48.172Z,98443.20
2018-02-27T02:16:51.865Z,98444.09
2018-02-27T02:17:55.788Z,98447.19
2018-02-27T02:18:59.532Z,98446.34
2018-02-27T02:20:03.144Z,98447.41
2018-02-27T02:21:06.766Z,98443.45
2018-02-27T02:22:10.535Z,98439.08
2018-02-27T02:23:13.888Z,98440.15
2018-02-27T02:24:17.707Z,98436.89
2018-02-27T02:25:21.554Z,98436.55
2018-02-27T02:26:24.861Z,98427.75
2018-02-27T02:27:28.396Z,98433.02
2018-02-27T02:28:31.751Z,98433.84
2018-02-27T02:29:35.145Z,98433.60
2018-02-27T02:30:38.782Z,98431.49
2018-02-27T02:31:42.266Z,98431.42
2018-02-27T02:32:45.481Z,98426.51
2018-02-27T02:33:48.918Z,98430.39
2018-02-27T02:34:52.438Z,98432.38
2018-02-27T02:35:55.750Z,98426.51
2018-02-27T02:36:59.436Z,98426.52
2018-02-27T02:38:02.968Z,98423.77
2018-02-27T02:39:06.317Z,98427.45
2018-02-27T02:40:09.633Z,98421.50
2018-02-27T02:41:12.975Z,98425.00
2018-02-27T02:42:16.302Z,98422.05
2018-02-27T02:43:20.078Z,98416.19
2018-02-27T02:44:23.373Z,98423.18
2018-02-27T02:45:26.576Z,98422.64
2018-02-27T02:46:29.965Z,98421.61
2018-02-27T02:47:33.517Z,98409.25
2018-02-27T02:48:37.053Z,98419.53
2018-02-27T02:49:40.893Z,98420.41
2018-02-27T02:50:44.393Z,98409.98
2018-02-27T02:51:47.807Z,98411.03
2018-02-27T02:52:51.109Z,98408.31
2018-02-27T02:53:54.526Z,98414.71
2018-02-27T02:54:57.694Z,98409.00
2018-02-27T02:56:01.308Z,98410.83
2018-02-27T02:57:04.580Z,98406.84
2018-02-27T02:58:07.912Z,98406.20
2018-02-27T02:59:11.282Z,98406.20
2018-02-27T03:00:14.630Z,98401.42
2018-02-27T03:01:17.981Z,98400.68
2018-02-27T03:02:21.844Z,98401.58
2018-02-27T03:03:25.924Z,98399.95
2018-02-27T03:04:29.169Z,98399.61
2018-02-27T03:05:32.663Z,98407.56
2018-02-27T03:06:35.959Z,98397.73
2018-02-27T03:07:39.089Z,98390.90
2018-02-27T03:08:42.765Z,98390.75
2018-02-27T03:09:45.971Z,98397.49
2018-02-27T03:10:49.232Z,98400.68
2018-02-27T03:11:52.410Z,98392.63
2018-02-27T03:12:55.855Z,98388.69
2018-02-27T03:13:59.132Z,98395.42
2018-02-27T03:15:02.516Z,98396.66
2018-02-27T03:16:05.846Z,98394.20
2018-02-27T03:17:09.033Z,98391.78
2018-02-27T03:18:12.418Z,98391.19
2018-02-27T03:19:15.725Z,98388.83
2018-02-27T03:20:19.026Z,98383.66
2018-02-27T03:21:22.638Z,98386.47
2018-02-27T03:22:25.908Z,98383.14
2018-02-27T03:23:29.178Z,98380.88
2018-02-27T03:24:32.357Z,98377.95
2018-02-27T03:25:35.601Z,98382.50
2018-02-27T03:26:38.929Z,98384.55
2018-02-27T03:27:42.546Z,98380.27
2018-02-27T03:28:45.903Z,98376.50
2018-02-27T03:29:49.080Z,98378.59
2018-02-27T03:30:52.151Z,98381.56
2018-02-27T03:31:55.632Z,98376.92
2018-02-27T03:32:59.046Z,98376.44
2018-02-27T03:34:02.837Z,98373.78
2018-02-27T03:35:06.016Z,98380.22
2018-02-27T03:36:09.291Z,98374.56
2018-02-27T03:37:12.757Z,98375.39
2018-02-27T03:38:16.311Z,98370.48
2018-02-27T03:39:19.499Z,98370.88
2018-02-27T03:40:23.133Z,98370.38
2018-02-27T03:41:26.536Z,98367.73
2018-02-27T03:42:29.671Z,98369.56
2018-02-27T03:43:33.417Z,98370.83
2018-02-27T03:44:36.856Z,98365.17
2018-02-27T03:45:40.250Z,98367.53
2018-02-27T03:46:43.837Z,98365.47
2018-02-27T03:47:46.974Z,98360.64
2018-02-27T03:48:50.237Z,98358.09
2018-02-27T03:49:53.455Z,98362.16
2018-02-27T03:50:56.633Z,98365.31
2018-02-27T03:51:59.862Z,98358.49
2018-02-27T03:53:03.375Z,98357.16
2018-02-27T03:54:06.541Z,98359.95
2018-02-27T03:55:09.943Z,98360.16
2018-02-27T03:56:13.203Z,98360.55
2018-02-27T03:57:16.631Z,98356.56
2018-02-27T03:58:19.810Z,98356.57
2018-02-27T03:59:23.599Z,98356.86
2018-02-27T04:00:26.936Z,98360.55
2018-02-27T04:01:30.221Z,98357.27
2018-02-27T04:02:33.535Z,98354.85
2018-02-27T04:03:36.732Z,98358.63
2018-02-27T04:04:40.350Z,98352.29
2018-02-27T04:05:44.046Z,98356.02
2018-02-27T04:06:47.547Z,98357.20
2018-02-27T04:07:50.835Z,98351.36
2018-02-27T04:08:54.219Z,98352.09
2018-02-27T04:09:57.425Z,98356.03
2018-02-27T04:11:00.585Z,98353.81
2018-02-27T04:12:04.113Z,98353.86
2018-02-27T04:13:07.357Z,98355.19
2018-02-27T04:14:10.660Z,98355.03
2018-02-27T04:15:13.938Z,98355.24
2018-02-27T04:16:17.198Z,98352.09
2018-02-27T04:17:20.394Z,98350.57
2018-02-27T04:18:24.113Z,98356.89
2018-02-27T04:19:27.275Z,98362.95
2018-02-27T04:20:30.406Z,98364.01
2018-02-27T04:21:33.582Z,98359.24
2018-02-27T04:22:36.774Z,98359.78
2018-02-27T04:23:39.918Z,98361.17
2018-02-27T04:24:43.633Z,98362.80
2018-02-27T04:25:47.001Z,98362.93
2018-02-27T04:26:50.139Z,98359.48
2018-02-27T04:27:53.479Z,98365.35
2018-02-27T04:28:56.718Z,98363.29
2018-02-27T04:29:59.955Z,98364.86
2018-02-27T04:31:03.472Z,98367.91
2018-02-27T04:32:06.957Z,98366.23
2018-02-27T04:33:10.210Z,98366.23
2018-02-27T04:34:13.462Z,98365.19
2018-02-27T04:35:16.575Z,98362.80
2018-02-27T04:36:20.314Z,98367.86
2018-02-27T04:37:23.696Z,98360.45
2018-02-27T04:38:26.984Z,98368.75
2018-02-27T04:39:30.209Z,98373.79
2018-02-27T04:40:33.612Z,98374.05
2018-02-27T04:41:37.303Z,98373.12
2018-02-27T04:42:40.897Z,98376.19
2018-02-27T04:43:44.441Z,98374.31
2018-02-27T04:44:47.729Z,98374.18
2018-02-27T04:45:51.080Z,98370.33
2018-02-27T04:46:54.354Z,98370.55
2018-02-27T04:47:57.497Z,98368.75
2018-02-27T04:49:00.686Z,98371.05
2018-02-27T04:50:04.163Z,98366.17
2018-02-27T04:51:07.353Z,98371.16
2018-02-27T04:52:10.417Z,98369.47
2018-02-27T04:53:13.626Z,98367.67
2018-02-27T04:54:17.007Z,98372.73
2018-02-27T04:55:20.308Z,98368.91
2018-02-27T04:56:23.866Z,98371.13
2018-02-27T04:57:27.165Z,98367.38
2018-02-27T04:58:30.805Z,98372.94
2018-02-27T04:59:34.001Z,98366.84
2018-02-27T05:00:37.048Z,98366.50
2018-02-27T05:01:40.419Z,98367.87
2018-02-27T05:02:43.962Z,98362.37
2018-02-27T05:03:47.069Z,98363.15
2018-02-27T05:04:50.402Z,98362.27
2018-02-27T05:05:54.061Z,98356.33
2018-02-27T05:06:57.438Z,98362.02
2018-02-27T05:08:00.851Z,98358.88
2018-02-27T05:09:05.300Z,98354.56
2018-02-27T05:10:08.996Z,98355.23
2018-02-27T05:11:12.274Z,98361.33
2018-02-27T05:12:15.486Z,98358.14
2018-02-27T05:13:19.324Z,98353.62
2018-02-27T05:14:23.044Z,98358.10
2018-02-27T05:15:26.846Z,98354.75
2018-02-27T05:16:30.236Z,98353.28
2018-02-27T05:17:33.607Z,98354.27
2018-02-27T05:18:37.104Z,98355.94
2018-02-27T05:19:40.465Z,98356.31
2018-02-27T05:20:43.816Z,98356.08
2018-02-27T05:21:47.704Z,98356.02
2018-02-27T05:22:51.153Z,98356.67
2018-02-27T05:23:54.546Z,98357.31
2018-02-27T05:24:58.251Z,98359.59
2018-02-27T05:26:01.753Z,98363.16
2018-02-27T05:27:05.269Z,98355.11
2018-02-27T05:28:09.093Z,98361.23
2018-02-27T05:29:12.591Z,98352.68
2018-02-27T05:30:16.306Z,98349.53
2018-02-27T05:31:19.790Z,98348.22
2018-02-27T05:32:23.483Z,98348.51
2018-02-27T05:33:27.095Z,98350.41
2018-02-27T05:34:30.944Z,98351.42
2018-02-27T05:35:34.563Z,98342.59
2018-02-27T05:36:38.268Z,98348.80
2018-02-27T05:37:41.771Z,98343.91
2018-02-27T05:38:45.430Z,98349.00
2018-02-27T05:39:49.113Z,98341.67
2018-02-27T05:40:52.844Z,98344.83
2018-02-27T05:41:56.556Z,98346.08
2018-02-27T05:43:00.112Z,98346.54
2018-02-27T05:44:03.704Z,98340.80
2018-02-27T05:45:07.299Z,98341.63
2018-02-27T05:46:11.026Z,98342.34
2018-02-27T05:47:15.334Z,98348.17
2018-02-27T05:48:18.772Z,98347.64
2018-02-27T05:49:22.640Z,98349.53
2018-02-27T05:50:26.052Z,98349.61
2018-02-27T05:51:30.337Z,98353.52
2018-02-27T05:52:33.837Z,98348.86
2018-02-27T05:53:38.019Z,98349.45
2018-02-27T05:54:41.691Z,98347.77
2018-02-27T05:55:45.240Z,98343.62
2018-02-27T05:56:48.873Z,98351.22
2018-02-27T05:57:52.495Z,98349.53
2018-02-27T05:58:56.171Z,98347.37
2018-02-27T06:00:00.061Z,98342.52
2018-02-27T06:01:04.013Z,98335.51
2018-02-27T06:02:07.667Z,98342.52
2018-02-27T06:03:11.522Z,98340.62
2018-02-27T06:04:16.008Z,98343.69
2018-02-27T06:05:19.647Z,98340.97
2018-02-27T06:06:23.893Z,98340.41
2018-02-27T06:07:27.489Z,98338.61
2018-02-27T06:08:31.343Z,98336.64
2018-02-27T06:09:35.034Z,98340.70
2018-02-27T06:10:38.809Z,98338.07
2018-02-27T06:11:42.598Z,98338.64
2018-02-27T06:12:46.887Z,98335.95
2018-02-27T06:13:50.563Z,98338.36
2018-02-27T06:14:54.196Z,98336.50
2018-02-27T06:15:57.779Z,98335.19
2018-02-27T06:17:01.987Z,98334.27
2018-02-27T06:18:05.828Z,98334.52
2018-02-27T06:19:09.769Z,98342.47
2018-02-27T06:20:13.331Z,98334.99
2018-02-27T06:21:17.085Z,98335.73
2018-02-27T06:22:20.558Z,98335.28
2018-02-27T06:23:24.206Z,98330.95
2018-02-27T06:24:27.920Z,98333.94
2018-02-27T06:25:32.668Z,98334.51
2018-02-27T06:26:36.229Z,98334.41
2018-02-27T06:27:39.815Z,98340.59
2018-02-27T06:28:44.322Z,98334.78
2018-02-27T06:29:48.045Z,98334.96
2018-02-27T06:30:51.562Z,98333.87
2018-02-27T06:31:56.133Z,98336.62
2018-02-27T06:32:59.652Z,98338.72
2018-02-27T06:34:03.173Z,98336.26
2018-02-27T06:35:06.922Z,98340.89
2018-02-27T06:36:10.525Z,98338.23
2018-02-27T06:37:14.079Z,98342.86
2018-02-27T06:38:18.179Z,98345.62
2018-02-27T06:39:21.784Z,98348.46
2018-02-27T06:40:25.336Z,98353.63
2018-02-27T06:41:29.064Z,98350.48
2018-02-27T06:42:32.900Z,98355.75
2018-02-27T06:43:36.526Z,98350.95
2018-02-27T06:44:40.545Z,98353.27
2018-02-27T06:45:44.281Z,98357.77
2018-02-27T06:46:47.792Z,98351.84
2018-02-27T06:47:51.477Z,98351.28
2018-02-27T06:48:55.026Z,98350.65
2018-02-27T06:49:58.956Z,98354.74
2018-02-27T06:51:03.121Z,98353.75
2018-02-27T06:52:06.720Z,98349.08
2018-02-27T06:53:10.501Z,98348.70
2018-02-27T06:54:14.154Z,98345.95
2018-02-27T06:55:17.899Z,98350.08
2018-02-27T06:56:21.490Z,98351.91
2018-02-27T06:57:25.453Z,98356.59
2018-02-27T06:58:29.100Z,98360.98
2018-02-27T06:59:32.934Z,98350.73
2018-02-27T07:00:36.704Z,98356.20
2018-02-27T07:01:40.303Z,98359.41
2018-02-27T07:02:43.817Z,98359.53
2018-02-27T07:03:47.781Z,98358.61
2018-02-27T07:04:51.400Z,98354.16
2018-02-27T07:05:54.950Z,98356.84
2018-02-27T07:06:58.734Z,98355.01
2018-02-27T07:08:02.424Z,98350.30
2018-02-27T07:09:06.074Z,98355.14
2018-02-27T07:10:11.332Z,98351.30
2018-02-27T07:11:15.076Z,98355.20
2018-02-27T07:12:18.806Z,98346.19
2018-02-27T07:13:22.431Z,98344.97
2018-02-27T07:14:26.127Z,98345.52
2018-02-27T07:15:29.809Z,98348.75
2018-02-27T07:16:33.887Z,98341.36
2018-02-27T07:17:37.633Z,98350.73
2018-02-27T07:18:41.380Z,98340.74
2018-02-27T07:19:45.066Z,98349.10
2018-02-27T07:20:48.542Z,98349.52
2018-02-27T07:21:52.153Z,98351.70
2018-02-27T07:22:56.365Z,98352.24
2018-02-27T07:24:00.094Z,98351.75
2018-02-27T07:25:03.827Z,98347.78
2018-02-27T07:26:07.533Z,98349.27
2018-02-27T07:27:11.100Z,98352.26
2018-02-27T07:28:14.710Z,98343.78
2018-02-27T07:29:18.625Z,98346.53
2018-02-27T07:30:22.020Z,98349.75
2018-02-27T07:31:25.747Z,98345.03
2018-02-27T07:32:29.338Z,98344.41
2018-02-27T07:33:33.150Z,98343.74
2018-02-27T07:34:36.692Z,98345.33
2018-02-27T07:35:40.463Z,98347.43
2018-02-27T07:36:43.932Z,98348.00
2018-02-27T07:37:47.608Z,98348.14
2018-02-27T07:38:51.154Z,98347.34
2018-02-27T07:39:54.760Z,98347.99
2018-02-27T07:40:58.274Z,98340.91
2018-02-27T07:42:02.432Z,98347.50
2018-02-27T07:43:05.977Z,98346.32
2018-02-27T07:44:09.451Z,98343.86
2018-02-27T07:45:12.932Z,98353.95
2018-02-27T07:46:16.435Z,98352.20
2018-02-27T07:47:19.837Z,98351.73
2018-02-27T07:48:23.714Z,98345.58
2018-02-27T07:49:27.254Z,98355.10
2018-02-27T07:50:30.751Z,98356.63
2018-02-27T07:51:34.292Z,98355.03
2018-02-27T07:52:37.953Z,98357.95
2018-02-27T07:53:41.397Z,98349.05
2018-02-27T07:54:45.250Z,98345.94
2018-02-27T07:55:48.724Z,98339.19
2018-02-27T07:56:52.225Z,98340.92
2018-02-27T07:57:55.708Z,98349.17
2018-02-27T07:58:59.251Z,98346.19
2018-02-27T08:00:02.702Z,98341.32
2018-02-27T08:01:06.637Z,98348.88
2018-02-27T08:02:10.153Z,98333.61
2018-02-27T08:03:13.617Z,98343.68
2018-02-27T08:04:17.202Z,98340.45
2018-02-27T08:05:20.920Z,98337.94
2018-02-27T08:06:24.575Z,98343.41
2018-02-27T08:07:27.918Z,98345.11
2018-02-27T08:08:31.476Z,98344.81
2018-02-27T08:09:34.875Z,98340.45
2018-02-27T08:10:38.315Z,98335.73
2018-02-27T08:11:41.699Z,98339.08
2018-02-27T08:12:45.611Z,98333.94
2018-02-27T08:13:49.122Z,98338.48
2018-02-27T08:14:52.665Z,98341.81
2018-02-27T08:15:56.188Z,98337.48
2018-02-27T08:16:59.629Z,98338.95
2018-02-27T08:18:03.115Z,98325.48
2018-02-27T08:19:06.984Z,98336.45
2018-02-27T08:20:10.622Z,98332.89
2018-02-27T08:21:14.110Z,98341.81
2018-02-27T08:22:17.577Z,98333.55
2018-02-27T08:23:21.289Z,98333.98
2018-02-27T08:24:24.832Z,98328.73
2018-02-27T08:25:28.633Z,98329.55
2018-02-27T08:26:32.059Z,98333.66
2018-02-27T08:27:35.494Z,98327.84
2018-02-27T08:28:38.990Z,98319.97
2018-02-27T08:29:42.363Z,98326.73
2018-02-27T08:30:45.911Z,98322.89
2018-02-27T08:31:49.595Z,98329.22
2018-02-27T08:32:53.374Z,98324.95
2018-02-27T08:33:56.636Z,98327.62
2018-02-27T08:35:00.004Z,98312.58
2018-02-27T08:36:03.237Z,98312.53
2018-02-27T08:37:06.641Z,98320.14
2018-02-27T08:38:10.385Z,98310.87
2018-02-27T08:39:13.853Z,98314.85
2018-02-27T08:40:17.392Z,98312.14
2018-02-27T08:41:20.802Z,98302.49
2018-02-27T08:42:24.216Z,98312.56
2018-02-27T08:43:27.609Z,98316.59
2018-02-27T08:44:31.137Z,98318.42
2018-02-27T08:45:34.600Z,98315.70
2018-02-27T08:46:38.210Z,98320.78
2018-02-27T08:47:41.711Z,98316.50
2018-02-27T08:48:45.170Z,98319.53
2018-02-27T08:49:49.321Z,98316.89
2018-02-27T08:50:52.801Z,98303.19
2018-02-27T08:51:56.298Z,98316.67
2018-02-27T08:52:59.845Z,98305.86
2018-02-27T08:54:03.323Z,98310.33
2018-02-27T08:55:06.872Z,98308.51
2018-02-27T08:56:10.786Z,98312.24
2018-02-27T08:57:14.253Z,98312.17
2018-02-27T08:58:17.794Z,98307.77
2018-02-27T08:59:21.245Z,98306.73
2018-02-27T09:00:24.698Z,98306.95
2018-02-27T09:01:28.129Z,98308.27
2018-02-27T09:02:32.038Z,98309.38
2018-02-27T09:03:35.458Z,98317.02
2018-02-27T09:04:39.015Z,98313.38
2018-02-27T09:05:42.926Z,98319.41
2018-02-27T09:06:46.523Z,98314.36
2018-02-27T09:07:50.044Z,98314.57
2018-02-27T09:08:53.704Z,98307.19
2018-02-27T09:09:56.984Z,98306.95
2018-02-27T09:11:00.242Z,98315.28
2018-02-27T09:12:03.646Z,98315.83
2018-02-27T09:13:07.034Z,98322.48
2018-02-27T09:14:10.473Z,98311.11
2018-02-27T09:15:14.239Z,98310.88
2018-02-27T09:16:17.583Z,98312.20
2018-02-27T09:17:21.050Z,98304.43
2018-02-27T09:18:24.686Z,98300.28
2018-02-27T09:19:28.028Z,98297.77
2018-02-27T09:20:31.566Z,98302.59
2018-02-27T09:21:35.392Z,98302.07
2018-02-27T09:22:38.788Z,98302.03
2018-02-27T09:23:42.113Z,98298.95
2018-02-27T09:24:45.548Z,98293.63
2018-02-27T09:25:49.082Z,98290.34
2018-02-27T09:26:52.587Z,98298.23
2018-02-27T09:27:56.315Z,98297.23
2018-02-27T09:28:59.752Z,98302.88
2018-02-27T09:30:04.353Z,98298.15
2018-02-27T09:31:08.149Z,98300.39
2018-02-27T09:32:11.531Z,98298.27
2018-02-27T09:33:15.069Z,98299.20
2018-02-27T09:34:18.897Z,98300.79
2018-02-27T09:35:22.450Z,98292.64
2018-02-27T09:36:25.836Z,98292.89
2018-02-27T09:37:29.284Z,98294.17
2018-02-27T09:38:32.767Z,98296.67
2018-02-27T09:39:36.173Z,98300.83
2018-02-27T09:40:39.975Z,98294.86
2018-02-27T09:41:43.993Z,98291.82
2018-02-27T09:42:47.494Z,98288.62
2018-02-27T09:43:50.869Z,98287.67
2018-02-27T09:44:54.237Z,98288.59
2018-02-27T09:45:57.647Z,98282.78
2018-02-27T09:47:01.502Z,98290.62
2018-02-27T09:48:05.049Z,98291.03
2018-02-27T09:49:08.540Z,98286.92
2018-02-27T09:50:12.007Z,98282.86
2018-02-27T09:51:15.416Z,98281.24
2018-02-27T09:52:19.073Z,98284.73
2018-02-27T09:53:22.848Z,98291.30
2018-02-27T09:54:26.374Z,98285.44
2018-02-27T09:55:29.853Z,98274.03
2018-02-27T09:56:33.325Z,98271.07
2018-02-27T09:57:36.763Z,98280.81
2018-02-27T09:58:40.273Z,98275.03
2018-02-27T09:59:44.324Z,98292.38
2018-02-27T10:00:48.050Z,98276.72
2018-02-27T10:01:51.564Z,98273.93
2018-02-27T10:02:54.888Z,98272.64
2018-02-27T10:03:58.218Z,98275.20
2018-02-27T10:05:01.683Z,98270.44
2018-02-27T10:06:05.490Z,98269.50
2018-02-27T10:07:08.915Z,98270.91
2018-02-27T10:08:12.318Z,98269.70
2018-02-27T10:09:15.701Z,98272.15
2018-02-27T10:10:19.173Z,98277.30
2018-02-27T10:11:22.550Z,98267.23
2018-02-27T10:12:26.375Z,98266.34
2018-02-27T10:13:30.084Z,98250.84
2018-02-27T10:14:33.644Z,98251.86
2018-02-27T10:15:36.969Z,98272.30
2018-02-27T10:16:40.301Z,98261.75
2018-02-27T10:17:43.764Z,98271.90
2018-02-27T10:18:47.508Z,98264.49
2018-02-27T10:19:50.867Z,98274.81
2018-02-27T10:20:54.184Z,98260.07
2018-02-27T10:21:57.562Z,98260.80
2018-02-27T10:23:00.981Z,98267.81
2018-02-27T10:24:04.399Z,98272.36
2018-02-27T10:25:07.785Z,98253.54
2018-02-27T10:26:11.246Z,98268.98
2018-02-27T10:27:14.513Z,98267.84
2018-02-27T10:28:17.788Z,98260.33
2018-02-27T10:29:21.153Z,98255.63
2018-02-27T10:30:24.908Z,98262.28
2018-02-27T10:31:28.396Z,98256.24
2018-02-27T10:32:31.920Z,98265.05
2018-02-27T10:33:38.973Z,98270.83
2018-02-27T10:34:42.721Z,98266.01
2018-02-27T10:35:46.218Z,98268.58
2018-02-27T10:36:50.196Z,98254.55
2018-02-27T10:37:53.551Z,98245.94
2018-02-27T10:38:56.871Z,98271.14
2018-02-27T10:40:00.336Z,98260.34
2018-02-27T10:41:03.824Z,98268.73
2018-02-27T10:42:07.161Z,98272.30
2018-02-27T10:43:10.895Z,98274.04
2018-02-27T10:44:14.356Z,98270.41
2018-02-27T10:45:17.684Z,98271.39
2018-02-27T10:46:21.146Z,98268.78
2018-02-27T10:47:24.575Z,98274.00
2018-02-27T10:48:28.019Z,98270.95
2018-02-27T10:49:31.983Z,98273.72
2018-02-27T10:50:35.869Z,98277.55
2018-02-27T10:51:39.734Z,98268.97
2018-02-27T10:52:43.029Z,98275.72
2018-02-27T10:53:46.280Z,98266.38
2018-02-27T10:54:49.587Z,98263.84
2018-02-27T10:55:53.397Z,98257.16
2018-02-27T10:56:56.674Z,98261.27
2018-02-27T10:58:00.062Z,98256.80
2018-02-27T10:59:03.560Z,98248.08
2018-02-27T11:00:07.110Z,98255.18
2018-02-27T11:01:14.406Z,98257.52
2018-02-27T11:02:17.829Z,98249.11
2018-02-27T11:03:21.147Z,98257.28
2018-02-27T11:04:24.572Z,98257.48
2018-02-27T11:05:27.997Z,98237.56
2018-02-27T11:06:31.338Z,98246.86
2018-02-27T11:07:34.894Z,98248.03
2018-02-27T11:08:38.419Z,98248.59
2018-02-27T11:09:41.752Z,98252.27
2018-02-27T11:10:45.325Z,98249.20
2018-02-27T11:11:48.860Z,98247.42
2018-02-27T11:12:52.197Z,98234.02
2018-02-27T11:13:56.070Z,98232.53
2018-02-27T11:14:59.343Z,98241.30
2018-02-27T11:16:02.851Z,98242.17
2018-02-27T11:17:07.392Z,98239.05
2018-02-27T11:18:10.733Z,98245.58
2018-02-27T11:19:14.102Z,98238.50
2018-02-27T11:20:17.659Z,98234.10
2018-02-27T11:21:20.855Z,98232.07
2018-02-27T11:22:24.217Z,98240.19
2018-02-27T11:23:27.624Z,98234.11
2018-02-27T11:24:30.921Z,98228.89
2018-02-27T11:25:34.295Z,98230.72
2018-02-27T11:26:37.950Z,98230.23
2018-02-27T11:27:41.378Z,98235.82
2018-02-27T11:28:44.616Z,98239.14
2018-02-27T11:29:47.790Z,98227.79
2018-02-27T11:30:50.921Z,98235.72
2018-02-27T11:31:54.203Z,98218.64
2018-02-27T11:32:59.896Z,98227.17
2018-02-27T11:34:03.563Z,98220.36
2018-02-27T11:35:06.869Z,98213.38
2018-02-27T11:36:10.061Z,98216.69
2018-02-27T11:37:13.356Z,98200.23
2018-02-27T11:38:16.650Z,98208.30
2018-02-27T11:39:20.029Z,98202.42
2018-02-27T11:40:23.368Z,98210.73
2018-02-27T11:41:26.611Z,98207.33
2018-02-27T11:42:29.850Z,98220.17
2018-02-27T11:43:33.194Z,98213.11
2018-02-27T11:44:36.855Z,98216.65
2018-02-27T11:45:40.061Z,98215.60
2018-02-27T11:46:43.325Z,98195.42
2018-02-27T11:47:46.625Z,98208.28
2018-02-27T11:48:49.953Z,98211.22
2018-02-27T11:49:53.358Z,98198.76
2018-02-27T11:50:57.203Z,98177.84
2018-02-27T11:52:00.593Z,98204.89
2018-02-27T11:53:03.878Z,98199.63
2018-02-27T11:54:07.363Z,98196.80
2018-02-27T11:55:10.646Z,98209.90
2018-02-27T11:56:13.950Z,98190.34
2018-02-27T11:57:17.373Z,98205.33
2018-02-27T11:58:20.691Z,98200.83
2018-02-27T11:59:23.956Z,98200.25
2018-02-27T12:00:27.245Z,98195.80
2018-02-27T12:01:30.459Z,98205.48
2018-02-27T12:02:33.726Z,98197.88
2018-02-27T12:03:37.097Z,98194.38
2018-02-27T12:04:40.428Z,98194.60
2018-02-27T12:05:43.687Z,98193.44
2018-02-27T12:06:46.970Z,98186.06
2018-02-27T12:07:50.229Z,98179.96
2018-02-27T12:08:53.496Z,98182.34
2018-02-27T12:09:57.128Z,98187.56
2018-02-27T12:11:00.396Z,98179.05
2018-02-27T12:12:03.795Z,98176.93
2018-02-27T12:13:07.195Z,98179.37
2018-02-27T12:14:10.578Z,98176.23
2018-02-27T12:15:13.936Z,98187.72
2018-02-27T12:16:17.729Z,98189.16
2018-02-27T12:17:21.018Z,98174.72
2018-02-27T12:18:24.336Z,98175.12
2018-02-27T12:19:27.613Z,98165.88
2018-02-27T12:20:30.870Z,98176.97
2018-02-27T12:21:34.204Z,98175.62
2018-02-27T12:22:38.013Z,98182.28
2018-02-27T12:23:41.230Z,98174.82
2018-02-27T12:24:44.486Z,98174.47
2018-02-27T12:25:47.749Z,98166.58